Time;durP1;ratioP1;P1;durP2;ratioP2;P2;SDS_P1;SDS_P2;PMS_P1;PMS_P2;Temp;Humidity;BMP_temperature;BMP_pressure;BME280_temperature;BME280_humidity;BME280_pressure;Samples;Min_cycle;Max_cycle;Signal;HPM_P1;HPM_P2
2023/09/21 00:00:56;;;;;;;3.67;1.60;;;17.50;99.90;;;;;;5120766;27;20042;-64
2023/09/21 00:03:22;;;;;;;5.35;2.70;;;17.50;99.90;;;;;;5123170;27;20047;-64
2023/09/21 00:05:51;;;;;;;3.47;1.50;;;17.50;99.90;;;;;;5119145;27;20024;-63
2023/09/21 00:08:17;;;;;;;2.38;1.40;;;17.50;99.90;;;;;;5123495;27;20582;-63
2023/09/21 00:10:42;;;;;;;3.80;1.55;;;17.50;99.90;;;;;;5120436;27;20118;-63
2023/09/21 00:13:08;;;;;;;2.60;1.48;;;17.50;99.90;;;;;;5115211;27;20107;-63
2023/09/21 00:15:34;;;;;;;2.78;1.40;;;17.50;99.90;;;;;;5118483;27;20638;-63
2023/09/21 00:18:00;;;;;;;1.80;1.48;;;17.50;99.90;;;;;;5116317;27;21291;-63
2023/09/21 00:20:29;;;;;;;2.58;1.60;;;17.50;99.90;;;;;;5116485;27;20081;-63
2023/09/21 00:22:59;;;;;;;2.60;1.40;;;17.50;99.90;;;;;;5115293;27;20059;-63
2023/09/21 00:25:25;;;;;;;3.15;1.40;;;17.50;99.90;;;;;;5121312;27;20062;-64
2023/09/21 00:27:51;;;;;;;6.68;1.75;;;17.50;99.90;;;;;;5123499;27;20039;-63
2023/09/21 00:30:17;;;;;;;2.10;1.45;;;17.50;99.90;;;;;;5123744;27;20046;-62
2023/09/21 00:32:43;;;;;;;2.25;1.52;;;17.50;99.90;;;;;;5121942;27;20047;-63
2023/09/21 00:35:10;;;;;;;3.20;1.80;;;17.50;99.90;;;;;;5121237;27;20576;-63
2023/09/21 00:37:37;;;;;;;2.38;1.30;;;17.50;99.90;;;;;;5121285;27;20039;-63
2023/09/21 00:40:17;;;;;;;2.92;1.50;;;17.50;99.90;;;;;;5121402;27;20047;-63
2023/09/21 00:42:44;;;;;;;3.22;1.38;;;17.50;99.90;;;;;;5123831;27;20042;-63
2023/09/21 00:45:10;;;;;;;3.50;1.70;;;17.50;99.90;;;;;;5124845;27;20067;-64
2023/09/21 00:47:43;;;;;;;4.75;1.50;;;17.60;99.90;;;;;;5129407;27;20107;-62
2023/09/21 00:50:10;;;;;;;2.17;1.70;;;17.60;99.90;;;;;;5124440;27;20092;-63
2023/09/21 00:52:44;;;;;;;2.45;1.60;;;17.60;99.90;;;;;;5108936;27;20047;-63
2023/09/21 00:55:13;;;;;;;4.10;1.60;;;17.60;99.90;;;;;;5129803;27;20035;-62
2023/09/21 00:57:40;;;;;;;3.50;1.70;;;17.60;99.90;;;;;;5124697;27;20047;-63
2023/09/21 01:00:13;;;;;;;6.43;2.60;;;17.60;99.90;;;;;;5121561;27;20133;-63
2023/09/21 01:02:45;;;;;;;3.53;1.65;;;17.60;99.90;;;;;;5118397;27;20043;-64
2023/09/21 01:05:13;;;;;;;3.72;1.67;;;17.60;99.90;;;;;;5113571;27;20036;-64
2023/09/21 01:07:40;;;;;;;2.47;1.50;;;17.60;99.90;;;;;;5119752;27;20497;-63
2023/09/21 01:10:07;;;;;;;4.15;1.70;;;17.60;99.90;;;;;;5118823;27;20035;-63
2023/09/21 01:12:36;;;;;;;5.15;2.30;;;17.70;99.90;;;;;;5121611;27;20043;-64
2023/09/21 01:15:10;;;;;;;3.42;1.90;;;17.70;99.90;;;;;;5114978;27;20515;-64
2023/09/21 01:17:41;;;;;;;3.92;1.70;;;17.70;99.90;;;;;;5102254;27;20039;-63
2023/09/21 01:20:27;;;;;;;3.35;1.40;;;17.80;99.90;;;;;;5120328;27;20046;-63
2023/09/21 01:23:12;;;;;;;4.50;1.63;;;17.80;99.90;;;;;;5114415;27;20036;-63
2023/09/21 01:25:39;;;;;;;2.72;1.20;;;17.80;99.90;;;;;;5115183;27;20039;-63
2023/09/21 01:28:08;;;;;;;1.85;1.42;;;17.80;99.90;;;;;;5115563;27;20084;-63
2023/09/21 01:30:35;;;;;;;2.65;1.60;;;17.80;99.90;;;;;;5113145;27;20031;-63
2023/09/21 01:33:04;;;;;;;3.78;1.73;;;17.80;99.90;;;;;;5118916;27;20077;-63
2023/09/21 01:35:31;;;;;;;2.45;1.70;;;17.80;99.90;;;;;;5128275;27;20050;-63
2023/09/21 01:37:58;;;;;;;2.38;1.50;;;17.80;99.90;;;;;;5118428;27;20039;-63
2023/09/21 01:40:23;;;;;;;2.05;1.60;;;17.80;99.90;;;;;;5129072;27;20164;-63
2023/09/21 01:42:50;;;;;;;3.33;1.75;;;17.80;99.90;;;;;;5119256;27;20130;-63
2023/09/21 01:45:16;;;;;;;2.88;1.60;;;17.80;99.90;;;;;;5123912;27;20097;-62
2023/09/21 01:47:43;;;;;;;4.68;2.00;;;17.80;99.90;;;;;;5114779;28;20588;-63
2023/09/21 01:50:15;;;;;;;2.10;1.55;;;17.80;99.90;;;;;;5118792;28;20423;-64
2023/09/21 01:52:41;;;;;;;4.43;1.90;;;17.80;99.90;;;;;;5119307;28;20051;-62
2023/09/21 01:55:10;;;;;;;5.22;1.80;;;17.80;99.90;;;;;;5096812;28;20055;-63
2023/09/21 01:57:40;;;;;;;4.30;2.05;;;17.80;99.90;;;;;;5116937;28;20130;-64
2023/09/21 02:00:22;;;;;;;4.85;1.77;;;17.80;99.90;;;;;;5128263;27;20061;-63
2023/09/21 02:02:54;;;;;;;3.55;1.80;;;17.80;99.90;;;;;;5122629;27;20125;-64
2023/09/21 02:05:20;;;;;;;3.88;1.85;;;17.80;99.90;;;;;;5130592;27;20043;-63
2023/09/21 02:07:47;;;;;;;3.20;1.63;;;17.80;99.90;;;;;;5111767;27;20035;-63
2023/09/21 02:10:16;;;;;;;8.10;2.35;;;17.80;99.90;;;;;;5129016;27;20398;-63
2023/09/21 02:12:57;;;;;;;3.85;1.83;;;17.80;99.90;;;;;;5121523;27;20034;-63
2023/09/21 02:15:24;;;;;;;4.43;1.83;;;17.80;99.90;;;;;;5122597;27;20505;-63
2023/09/21 02:17:51;;;;;;;3.42;1.95;;;17.80;99.90;;;;;;5119280;27;20431;-63
2023/09/21 02:20:20;;;;;;;3.88;1.42;;;17.80;99.90;;;;;;5118664;27;20075;-63
2023/09/21 02:22:51;;;;;;;2.78;1.75;;;17.80;99.90;;;;;;5114144;27;20082;-63
2023/09/21 02:25:18;;;;;;;2.20;1.50;;;17.80;99.90;;;;;;5115617;27;20042;-63
2023/09/21 02:27:46;;;;;;;2.72;1.58;;;17.80;99.90;;;;;;5129200;27;20063;-63
2023/09/21 02:30:14;;;;;;;2.95;1.73;;;17.80;99.90;;;;;;5124818;27;20046;-63
2023/09/21 02:32:41;;;;;;;3.70;2.03;;;17.80;99.90;;;;;;5128552;27;20039;-63
2023/09/21 02:35:16;;;;;;;2.50;1.45;;;17.70;99.90;;;;;;5115499;27;20125;-63
2023/09/21 02:37:44;;;;;;;2.42;1.60;;;17.70;99.90;;;;;;5111382;27;20047;-64
2023/09/21 02:40:14;;;;;;;6.80;2.30;;;17.70;99.90;;;;;;5114186;27;20047;-63
2023/09/21 02:42:52;;;;;;;4.32;1.98;;;17.70;99.90;;;;;;5109802;27;20566;-63
2023/09/21 02:45:19;;;;;;;3.80;1.70;;;17.70;99.90;;;;;;5112543;27;20039;-63
2023/09/21 02:47:46;;;;;;;4.38;1.67;;;17.60;99.90;;;;;;5112805;27;20043;-63
2023/09/21 02:50:21;;;;;;;2.85;1.60;;;17.60;99.90;;;;;;5100752;27;20070;-63
2023/09/21 02:52:55;;;;;;;2.85;1.85;;;17.60;99.90;;;;;;5110777;27;20043;-63
2023/09/21 02:55:22;;;;;;;3.13;1.80;;;17.50;99.90;;;;;;5111763;27;20043;-63
2023/09/21 02:57:58;;;;;;;3.92;1.90;;;17.60;99.90;;;;;;5095537;27;20046;-63
2023/09/21 03:00:26;;;;;;;2.80;1.80;;;17.50;99.90;;;;;;5111802;27;20081;-63
2023/09/21 03:02:55;;;;;;;3.38;1.52;;;17.50;99.90;;;;;;5112805;27;20055;-63
2023/09/21 03:05:23;;;;;;;2.90;1.67;;;17.50;99.90;;;;;;5122906;27;20048;-64
2023/09/21 03:07:49;;;;;;;3.38;1.75;;;17.50;99.90;;;;;;5123304;27;20039;-63
2023/09/21 03:10:18;;;;;;;4.07;1.63;;;17.60;99.90;;;;;;5129546;27;20049;-63
2023/09/21 03:12:48;;;;;;;2.65;1.60;;;17.60;99.90;;;;;;5127045;27;20047;-62
2023/09/21 03:15:14;;;;;;;3.83;1.88;;;17.60;99.90;;;;;;5122097;27;20178;-63
2023/09/21 03:17:41;;;;;;;4.30;1.90;;;17.50;99.90;;;;;;5121583;27;20043;-63
2023/09/21 03:20:11;;;;;;;2.50;1.42;;;17.50;99.90;;;;;;5125300;27;20502;-64
2023/09/21 03:22:38;;;;;;;2.90;1.60;;;17.50;99.90;;;;;;5125013;27;20043;-63
2023/09/21 03:25:16;;;;;;;4.95;1.90;;;17.50;99.90;;;;;;5111959;28;20040;-63
2023/09/21 03:27:48;;;;;;;2.42;1.45;;;17.50;99.90;;;;;;5127906;27;20046;-63
2023/09/21 03:30:14;;;;;;;;;;;17.50;99.90;;;;;;5120484;27;20027;-63
2023/09/21 03:32:40;;;;;;;2.65;1.52;;;17.50;99.90;;;;;;5121572;27;20331;-63
2023/09/21 03:35:08;;;;;;;3.03;1.65;;;17.50;99.90;;;;;;5124613;27;20055;-63
2023/09/21 03:37:34;;;;;;;2.80;1.60;;;17.40;99.90;;;;;;5128812;27;20043;-62
2023/09/21 03:39:59;;;;;;;3.17;1.40;;;17.40;99.90;;;;;;5128171;27;20500;-63
2023/09/21 03:42:27;;;;;;;3.35;1.42;;;17.40;99.90;;;;;;5123367;27;20596;-63
2023/09/21 03:44:53;;;;;;;4.95;1.50;;;17.50;99.90;;;;;;5128923;27;20032;-63
2023/09/21 03:47:18;;;;;;;2.10;1.60;;;17.40;99.90;;;;;;5118588;27;20057;-63
2023/09/21 03:49:44;;;;;;;3.88;1.73;;;17.40;99.90;;;;;;5118068;27;20505;-63
2023/09/21 03:52:16;;;;;;;3.10;1.50;;;17.40;99.90;;;;;;5120720;27;20082;-63
2023/09/21 03:54:46;;;;;;;2.63;1.48;;;17.40;99.90;;;;;;5118713;27;20077;-63
2023/09/21 03:57:14;;;;;;;6.40;1.63;;;17.40;99.90;;;;;;5113892;27;20059;-63
2023/09/21 03:59:40;;;;;;;3.55;1.48;;;17.40;99.90;;;;;;5101391;27;20483;-63
2023/09/21 04:02:09;;;;;;;3.13;1.52;;;17.40;99.90;;;;;;5108665;27;20054;-63
2023/09/21 04:04:36;;;;;;;3.63;1.35;;;17.40;99.90;;;;;;5126775;27;20504;-63
2023/09/21 04:07:02;;;;;;;2.78;1.60;;;17.40;99.90;;;;;;5106530;27;20118;-64
2023/09/21 04:09:28;;;;;;;2.60;1.40;;;17.40;99.90;;;;;;5100081;27;20047;-63
2023/09/21 04:11:56;;;;;;;2.13;1.55;;;17.40;99.90;;;;;;5100736;27;20046;-63
2023/09/21 04:14:21;;;;;;;2.80;1.70;;;17.40;99.90;;;;;;5103879;27;20468;-63
2023/09/21 04:16:47;;;;;;;2.42;1.42;;;17.40;99.90;;;;;;5106926;28;20166;-64
2023/09/21 04:19:14;;;;;;;1.83;1.40;;;17.40;99.90;;;;;;5110231;27;20043;-63
2023/09/21 04:21:39;;;;;;;2.90;1.40;;;17.40;99.90;;;;;;5111586;27;20039;-63
2023/09/21 04:24:08;;;;;;;2.00;1.20;;;17.40;99.90;;;;;;5109807;27;20092;-63
2023/09/21 04:26:33;;;;;;;2.55;1.60;;;17.40;99.90;;;;;;5106548;27;20043;-63
2023/09/21 04:28:59;;;;;;;1.80;1.50;;;17.40;99.90;;;;;;5126588;27;20109;-63
2023/09/21 04:31:24;;;;;;;4.07;1.67;;;17.40;99.90;;;;;;5102661;27;20070;-63
2023/09/21 04:33:50;;;;;;;3.85;1.50;;;17.40;99.90;;;;;;5096241;27;20032;-63
2023/09/21 04:36:16;;;;;;;2.38;1.50;;;17.40;99.90;;;;;;5096216;27;20039;-64
2023/09/21 04:38:42;;;;;;;2.83;1.58;;;17.40;99.90;;;;;;5105956;28;20039;-63
2023/09/21 04:41:14;;;;;;;1.73;1.20;;;17.40;99.90;;;;;;5100752;27;20108;-63
2023/09/21 04:43:41;;;;;;;2.85;1.60;;;17.40;99.90;;;;;;5097356;27;20082;-63
2023/09/21 04:46:07;;;;;;;3.15;1.80;;;17.40;99.90;;;;;;5113651;27;20032;-63
2023/09/21 04:48:33;;;;;;;2.00;1.30;;;17.30;99.90;;;;;;5102621;27;20062;-63
2023/09/21 04:50:59;;;;;;;2.28;1.55;;;17.30;99.90;;;;;;5104370;28;20097;-62
2023/09/21 04:53:27;;;;;;;2.88;1.50;;;17.30;99.90;;;;;;5104965;27;20127;-63
2023/09/21 04:55:53;;;;;;;2.50;1.58;;;17.30;99.90;;;;;;5115173;27;20043;-63
2023/09/21 04:58:19;;;;;;;4.25;1.48;;;17.30;99.90;;;;;;5117830;27;20050;-63
2023/09/21 05:00:45;;;;;;;2.92;1.60;;;17.30;99.90;;;;;;5120498;27;20107;-63
2023/09/21 05:03:11;;;;;;;3.28;1.60;;;17.30;99.90;;;;;;5119129;27;20042;-63
2023/09/21 05:05:36;;;;;;;3.85;1.60;;;17.20;99.90;;;;;;5119696;27;20096;-63
2023/09/21 05:08:03;;;;;;;3.20;1.40;;;17.20;99.90;;;;;;5143162;27;20439;-63
2023/09/21 05:10:30;;;;;;;4.45;1.55;;;17.20;99.90;;;;;;5150084;27;20464;-63
2023/09/21 05:12:57;;;;;;;6.03;1.60;;;17.20;99.90;;;;;;5127061;27;20034;-63
2023/09/21 05:15:23;;;;;;;2.83;1.58;;;17.30;99.90;;;;;;5123007;27;20046;-63
2023/09/21 05:17:49;;;;;;;2.15;1.58;;;17.30;99.90;;;;;;5123864;27;20546;-63
2023/09/21 05:20:15;;;;;;;2.30;1.50;;;17.30;99.90;;;;;;5120462;27;20054;-63
2023/09/21 05:22:42;;;;;;;2.95;1.40;;;17.30;99.90;;;;;;5130462;27;20039;-63
2023/09/21 05:25:09;;;;;;;2.55;1.50;;;17.30;99.90;;;;;;5101066;28;20123;-62
2023/09/21 05:27:36;;;;;;;3.45;1.60;;;17.30;99.90;;;;;;5117670;27;20054;-63
2023/09/21 05:30:04;;;;;;;3.83;1.67;;;17.30;99.90;;;;;;5143445;27;20043;-63
2023/09/21 05:32:33;;;;;;;4.93;1.65;;;17.30;99.90;;;;;;5120853;27;20089;-65
2023/09/21 05:34:59;;;;;;;3.15;1.75;;;17.30;99.90;;;;;;5125517;27;20039;-64
2023/09/21 05:37:25;;;;;;;3.50;1.77;;;17.30;99.90;;;;;;5117707;27;20550;-64
2023/09/21 05:39:51;;;;;;;3.97;2.05;;;17.30;99.90;;;;;;5125590;27;20067;-63
2023/09/21 05:42:18;;;;;;;4.07;1.77;;;17.30;99.90;;;;;;5124341;27;20410;-63
2023/09/21 05:44:44;;;;;;;3.45;1.70;;;17.30;99.90;;;;;;5125886;27;20046;-64
2023/09/21 05:47:10;;;;;;;2.75;1.50;;;17.30;99.90;;;;;;5120686;27;20031;-64
2023/09/21 05:49:37;;;;;;;4.47;1.50;;;17.30;99.90;;;;;;5135328;27;20041;-64
2023/09/21 05:52:11;;;;;;;4.30;1.70;;;17.30;99.90;;;;;;5122678;27;20045;-65
2023/09/21 05:54:37;;;;;;;3.03;1.48;;;17.40;99.90;;;;;;5129527;27;20050;-63
2023/09/21 05:57:03;;;;;;;2.70;1.40;;;17.30;99.90;;;;;;5117361;28;20047;-65
2023/09/21 05:59:31;;;;;;;2.63;1.80;;;17.40;99.90;;;;;;5114366;28;20448;-64
2023/09/21 06:02:00;;;;;;;2.47;1.35;;;17.40;99.90;;;;;;5123630;28;20070;-65
2023/09/21 06:04:26;;;;;;;2.33;1.58;;;17.40;99.90;;;;;;5117186;28;20095;-64
2023/09/21 06:06:58;;;;;;;3.38;1.98;;;17.40;99.90;;;;;;5122127;28;20494;-64
2023/09/21 06:09:24;;;;;;;1.92;1.30;;;17.40;99.90;;;;;;5103836;28;20119;-64
2023/09/21 06:11:50;;;;;;;3.28;1.38;;;17.40;99.90;;;;;;5122201;28;20544;-64
2023/09/21 06:14:20;;;;;;;3.33;1.60;;;17.40;99.90;;;;;;5109717;28;20042;-64
2023/09/21 06:16:46;;;;;;;3.72;1.48;;;17.40;99.90;;;;;;5110582;28;20039;-64
2023/09/21 06:19:13;;;;;;;3.17;1.80;;;17.40;99.90;;;;;;5122819;28;20042;-64
2023/09/21 06:21:39;;;;;;;2.10;1.88;;;17.40;99.90;;;;;;5106297;28;20104;-64
2023/09/21 06:24:09;;;;;;;2.10;1.38;;;17.40;99.90;;;;;;5112492;28;20038;-64
2023/09/21 06:26:35;;;;;;;3.75;1.50;;;17.40;99.90;;;;;;5118429;28;20118;-64
2023/09/21 06:29:01;;;;;;;1.85;1.55;;;17.40;99.90;;;;;;5119269;28;20054;-64
2023/09/21 07:31:26;;;;;;;3.50;1.83;;;17.30;99.90;;;;;;4994187;28;20417;-65
2023/09/21 07:34:17;;;;;;;5.22;1.67;;;17.30;99.90;;;;;;4857906;29;20072;-65
2023/09/21 07:36:52;;;;;;;2.60;1.95;;;17.30;99.90;;;;;;4870857;29;20056;-65
2023/09/21 07:39:28;;;;;;;2.50;1.83;;;17.20;99.90;;;;;;4870661;29;20060;-65
2023/09/21 07:42:04;;;;;;;3.83;1.90;;;17.20;99.90;;;;;;4870381;29;20053;-65
2023/09/21 07:44:44;;;;;;;3.42;1.83;;;17.20;99.90;;;;;;4870669;29;20053;-65
2023/09/21 07:47:21;;;;;;;3.13;1.85;;;17.20;99.90;;;;;;4856204;29;20049;-65
2023/09/21 07:49:57;;;;;;;2.95;1.65;;;17.20;99.90;;;;;;4870878;29;20049;-65
2023/09/21 07:52:33;;;;;;;2.80;1.73;;;17.20;99.90;;;;;;4853641;29;20533;-65
2023/09/21 07:55:09;;;;;;;2.70;1.50;;;17.10;99.90;;;;;;4852020;29;20132;-65
2023/09/21 07:57:47;;;;;;;2.45;1.75;;;17.10;99.90;;;;;;4851479;29;20053;-66
2023/09/21 08:00:22;;;;;;;3.88;1.90;;;17.10;99.90;;;;;;4862062;29;20132;-65
2023/09/21 08:02:58;;;;;;;2.22;1.58;;;17.10;99.90;;;;;;4870226;29;20082;-65
2023/09/21 08:05:34;;;;;;;3.85;1.65;;;17.10;99.90;;;;;;4870238;29;20404;-66
2023/09/21 08:08:08;;;;;;;2.63;1.80;;;17.10;99.90;;;;;;4935337;28;20498;-65
2023/09/21 08:10:34;;;;;;;4.82;2.15;;;17.10;99.90;;;;;;5003726;28;20094;-65
2023/09/21 08:13:01;;;;;;;2.72;1.80;;;17.10;99.90;;;;;;5105302;28;20063;-65
2023/09/21 08:15:27;;;;;;;3.75;1.65;;;17.10;99.90;;;;;;5104614;28;20422;-65
2023/09/21 08:17:53;;;;;;;3.17;1.95;;;17.10;99.90;;;;;;5101576;28;20056;-65
2023/09/21 08:20:22;;;;;;;2.60;1.85;;;17.10;99.90;;;;;;5085728;28;20052;-65
2023/09/21 08:22:49;;;;;;;2.88;1.73;;;17.10;99.90;;;;;;5084440;28;20079;-65
2023/09/21 08:25:15;;;;;;;2.60;1.70;;;17.10;99.90;;;;;;5084050;28;20115;-65
2023/09/21 08:27:40;;;;;;;2.55;1.90;;;17.20;99.90;;;;;;5084197;28;20182;-65
2023/09/21 08:30:09;;;;;;;2.70;1.73;;;17.20;99.90;;;;;;5084397;28;20035;-65
2023/09/21 08:32:34;;;;;;;3.67;1.83;;;17.10;99.90;;;;;;5094212;28;20247;-65
2023/09/21 08:35:00;;;;;;;3.80;2.10;;;17.10;99.90;;;;;;5106146;28;20052;-65
2023/09/21 08:37:26;;;;;;;1.85;1.60;;;17.10;99.90;;;;;;5097992;28;20036;-65
2023/09/21 08:39:51;;;;;;;3.05;2.20;;;17.10;99.90;;;;;;5091481;28;20048;-65
2023/09/21 08:42:17;;;;;;;2.00;1.80;;;17.00;99.90;;;;;;5091012;28;20392;-65
2023/09/21 08:44:43;;;;;;;3.33;2.13;;;17.00;99.90;;;;;;5090817;28;20050;-65
2023/09/21 08:47:13;;;;;;;3.72;2.20;;;16.90;99.90;;;;;;5091465;28;20036;-66
2023/09/21 08:49:45;;;;;;;3.35;2.38;;;16.90;99.90;;;;;;5110084;28;20104;-66
2023/09/21 08:52:13;;;;;;;4.15;2.33;;;16.90;99.90;;;;;;5094955;28;20051;-65
2023/09/21 08:54:46;;;;;;;4.35;2.40;;;16.80;99.90;;;;;;5111682;28;20097;-65
2023/09/21 08:57:13;;;;;;;3.50;2.20;;;16.90;99.90;;;;;;5114226;28;20479;-65
2023/09/21 08:59:43;;;;;;;4.22;2.58;;;16.80;99.90;;;;;;5111518;28;20483;-65
2023/09/21 09:02:14;;;;;;;5.07;2.70;;;16.80;99.90;;;;;;5111327;28;20501;-63
2023/09/21 09:04:43;;;;;;;4.13;2.78;;;16.70;99.90;;;;;;5110401;28;20054;-63
2023/09/21 09:07:12;;;;;;;3.58;2.55;;;16.70;99.90;;;;;;5110991;28;20092;-63
2023/09/21 09:09:39;;;;;;;5.65;2.53;;;16.70;99.90;;;;;;5110869;28;20032;-63
2023/09/21 09:12:25;;;;;;;2.90;2.60;;;16.60;99.90;;;;;;5110942;28;20449;-63
2023/09/21 09:14:52;;;;;;;4.85;2.85;;;16.60;99.90;;;;;;5110041;28;20040;-64
2023/09/21 09:17:18;;;;;;;2.65;2.33;;;16.60;99.90;;;;;;5110516;28;20032;-63
2023/09/21 09:19:46;;;;;;;3.53;2.38;;;16.50;99.90;;;;;;5110567;28;20032;-64
2023/09/21 09:22:14;;;;;;;1.85;1.60;;;16.50;99.90;;;;;;5110306;28;20032;-63
2023/09/21 09:24:40;;;;;;;1.30;1.20;;;16.40;99.90;;;;;;5110541;28;20039;-63
2023/09/21 09:27:06;;;;;;;1.55;1.20;;;16.20;99.90;;;;;;5110050;28;20387;-64
2023/09/21 09:29:33;;;;;;;1.52;1.13;;;16.20;99.90;;;;;;5110466;28;20046;-65
2023/09/21 09:31:59;;;;;;;1.60;1.08;;;16.10;99.90;;;;;;5109662;28;20126;-64
2023/09/21 09:34:28;;;;;;;2.63;0.90;;;16.00;99.90;;;;;;5093610;28;20398;-64
2023/09/21 09:36:55;;;;;;;2.42;0.73;;;16.00;99.90;;;;;;5110183;28;20050;-64
2023/09/21 09:39:23;;;;;;;1.20;0.63;;;15.90;99.90;;;;;;5109924;28;20054;-63
2023/09/21 09:41:50;;;;;;;1.52;0.50;;;15.80;99.90;;;;;;5110151;28;20168;-63
2023/09/21 09:44:24;;;;;;;0.80;0.50;;;15.80;99.90;;;;;;5109729;28;20039;-63
2023/09/21 09:46:56;;;;;;;2.38;0.70;;;15.70;99.90;;;;;;5110129;28;20039;-63
2023/09/21 09:49:26;;;;;;;0.95;0.50;;;15.60;99.90;;;;;;5108847;28;20402;-63
2023/09/21 09:51:56;;;;;;;2.38;0.80;;;15.50;99.90;;;;;;5110235;28;20047;-63
2023/09/21 09:54:24;;;;;;;2.13;0.55;;;15.60;99.90;;;;;;5109799;28;20134;-63
2023/09/21 09:56:52;;;;;;;0.80;0.40;;;15.50;99.90;;;;;;5110016;28;20092;-63
2023/09/21 09:59:21;;;;;;;1.13;0.65;;;15.60;99.90;;;;;;5109648;28;20039;-63
2023/09/21 10:01:49;;;;;;;1.60;0.57;;;15.50;99.90;;;;;;5109678;28;20054;-63
2023/09/21 10:04:18;;;;;;;1.25;0.65;;;15.50;99.90;;;;;;5101219;28;20040;-63
2023/09/21 10:06:46;;;;;;;1.80;0.55;;;15.50;99.90;;;;;;5104217;28;20047;-63
2023/09/21 10:09:13;;;;;;;1.65;0.70;;;15.50;99.90;;;;;;5089088;28;20062;-63
2023/09/21 10:11:42;;;;;;;2.55;0.70;;;15.40;99.90;;;;;;5072123;28;20048;-63
2023/09/21 10:14:11;;;;;;;2.17;0.60;;;15.50;99.90;;;;;;5089415;28;20504;-63
2023/09/21 10:16:41;;;;;;;1.13;0.80;;;15.50;99.90;;;;;;5093649;28;20043;-63
2023/09/21 10:19:23;;;;;;;0.50;0.50;;;15.40;99.90;;;;;;5109441;28;20050;-63
2023/09/21 10:21:52;;;;;;;1.27;0.60;;;15.40;99.90;;;;;;5109373;28;20039;-63
2023/09/21 10:24:18;;;;;;;2.05;0.77;;;15.50;99.90;;;;;;5109055;28;20473;-63
2023/09/21 10:26:51;;;;;;;3.40;1.38;;;15.50;99.90;;;;;;5109310;28;20074;-63
2023/09/21 10:29:26;;;;;;;1.33;0.60;;;15.50;99.90;;;;;;5108846;28;20043;-63
2023/09/21 10:31:54;;;;;;;1.58;0.60;;;15.50;99.90;;;;;;5109289;28;20066;-63
2023/09/21 10:34:22;;;;;;;1.33;0.70;;;15.50;99.90;;;;;;5108953;28;20142;-63
2023/09/21 10:37:11;;;;;;;1.45;0.80;;;15.50;99.90;;;;;;5109212;28;20066;-65
2023/09/21 10:39:37;;;;;;;0.88;0.55;;;15.70;99.90;;;;;;5108775;28;20038;-65
2023/09/21 10:42:03;;;;;;;1.85;0.70;;;15.70;99.90;;;;;;5109521;28;20540;-65
2023/09/21 10:44:57;;;;;;;1.00;0.60;;;15.70;99.90;;;;;;5108789;28;20047;-65
2023/09/21 10:47:26;;;;;;;0.73;0.60;;;15.70;99.90;;;;;;5108830;28;20108;-66
2023/09/21 10:49:52;;;;;;;0.93;0.50;;;15.70;99.90;;;;;;5108757;28;20051;-63
2023/09/21 10:52:18;;;;;;;0.80;0.47;;;15.80;99.90;;;;;;5108558;28;20132;-63
2023/09/21 10:54:44;;;;;;;1.60;0.60;;;15.80;99.90;;;;;;5108860;28;20150;-63
2023/09/21 10:57:11;;;;;;;0.98;0.60;;;15.90;99.90;;;;;;5108536;28;20039;-64
2023/09/21 10:59:37;;;;;;;0.70;0.60;;;15.80;99.90;;;;;;5108591;28;20168;-64
2023/09/21 11:02:03;;;;;;;1.35;0.70;;;15.80;99.90;;;;;;5108581;28;20450;-63
2023/09/21 11:04:28;;;;;;;0.93;0.65;;;15.70;99.90;;;;;;5097467;28;20051;-63
2023/09/21 11:06:54;;;;;;;1.30;0.60;;;15.70;99.90;;;;;;5102961;28;20044;-63
2023/09/21 11:09:20;;;;;;;1.27;0.80;;;15.70;99.90;;;;;;5108248;28;20044;-63
2023/09/21 11:11:46;;;;;;;0.70;0.50;;;15.70;99.90;;;;;;5108548;28;20071;-64
2023/09/21 11:14:12;;;;;;;0.68;0.57;;;15.70;99.90;;;;;;5108763;28;20035;-63
2023/09/21 11:16:38;;;;;;;2.72;0.88;;;15.70;99.90;;;;;;5108506;28;20089;-63
2023/09/21 11:19:05;;;;;;;3.00;0.82;;;15.70;99.90;;;;;;5091329;28;20051;-63
2023/09/21 11:21:31;;;;;;;1.92;0.50;;;15.70;99.90;;;;;;5108899;28;20048;-63
2023/09/21 11:23:58;;;;;;;0.70;0.50;;;15.70;99.90;;;;;;5108622;28;20126;-64
2023/09/21 11:26:26;;;;;;;0.75;0.60;;;15.70;99.90;;;;;;5107797;28;20108;-63
2023/09/21 11:28:58;;;;;;;2.90;0.68;;;15.70;99.90;;;;;;5108696;28;20055;-63
2023/09/21 11:31:28;;;;;;;0.50;0.47;;;15.60;99.90;;;;;;5108368;28;20043;-63
2023/09/21 11:33:53;;;;;;;0.57;0.50;;;15.60;99.90;;;;;;5111916;28;20050;-63
2023/09/21 11:36:20;;;;;;;1.20;0.60;;;15.60;99.90;;;;;;5111427;28;20408;-63
2023/09/21 11:38:46;;;;;;;1.08;0.60;;;15.70;99.90;;;;;;5111910;28;20465;-63
2023/09/21 11:41:14;;;;;;;0.88;0.70;;;15.60;99.90;;;;;;5111715;28;20517;-63
2023/09/21 11:43:42;;;;;;;1.40;0.68;;;15.70;99.90;;;;;;5110080;28;20455;-63
2023/09/21 11:46:09;;;;;;;0.68;0.45;;;15.70;99.90;;;;;;5111552;28;20043;-63
2023/09/21 11:48:36;;;;;;;1.23;0.80;;;15.60;99.90;;;;;;5129609;28;20051;-63
2023/09/21 11:51:05;;;;;;;1.42;0.80;;;15.40;99.90;;;;;;5111927;28;20051;-63
2023/09/21 11:53:31;;;;;;;3.60;0.80;;;15.50;99.90;;;;;;5110785;28;20119;-63
2023/09/21 11:55:57;;;;;;;1.70;0.77;;;15.50;99.90;;;;;;5125076;28;20044;-63
2023/09/21 11:58:22;;;;;;;1.58;0.80;;;15.50;99.90;;;;;;5091030;28;20097;-63
2023/09/21 12:01:12;;;;;;;1.13;0.70;;;15.50;99.90;;;;;;5091351;28;20035;-63
2023/09/21 12:03:38;;;;;;;0.82;0.63;;;15.50;99.90;;;;;;5090676;28;20044;-63
2023/09/21 12:06:04;;;;;;;0.63;0.60;;;15.50;99.90;;;;;;5074024;28;20460;-63
2023/09/21 12:08:31;;;;;;;1.67;0.65;;;15.50;99.90;;;;;;5090858;28;20031;-63
2023/09/21 12:10:57;;;;;;;0.80;0.70;;;15.50;99.90;;;;;;5090822;28;20043;-63
2023/09/21 12:13:23;;;;;;;1.00;0.60;;;15.50;99.90;;;;;;5112485;28;20554;-65
2023/09/21 12:15:55;;;;;;;1.15;0.57;;;15.60;99.90;;;;;;5094694;28;20150;-65
2023/09/21 12:18:21;;;;;;;0.60;0.40;;;15.70;99.90;;;;;;5094853;28;20047;-64
2023/09/21 12:20:49;;;;;;;0.45;0.45;;;15.70;99.90;;;;;;5094675;28;20035;-63
2023/09/21 12:23:15;;;;;;;0.60;0.50;;;15.70;99.90;;;;;;5101610;27;20050;-64
2023/09/21 12:25:41;;;;;;;1.55;0.60;;;15.60;99.90;;;;;;5133108;27;20122;-63
2023/09/21 12:28:09;;;;;;;1.48;0.85;;;15.60;99.90;;;;;;5114888;27;20122;-65
2023/09/21 12:30:37;;;;;;;1.25;0.70;;;15.60;99.90;;;;;;5098000;27;20039;-65
2023/09/21 12:33:06;;;;;;;1.60;0.70;;;15.60;99.90;;;;;;5114493;27;20062;-65
2023/09/21 12:35:32;;;;;;;0.55;0.52;;;15.60;99.90;;;;;;5115022;27;20051;-63
2023/09/21 12:37:58;;;;;;;0.73;0.50;;;15.60;99.90;;;;;;5114672;27;20085;-65
2023/09/21 12:40:23;;;;;;;0.60;0.52;;;15.70;99.90;;;;;;5112443;27;20513;-66
2023/09/21 12:42:49;;;;;;;0.50;0.50;;;15.70;99.90;;;;;;5076564;28;20044;-65
2023/09/21 12:45:15;;;;;;;0.68;0.60;;;15.70;99.90;;;;;;5122719;27;20043;-65
2023/09/21 12:47:46;;;;;;;0.95;0.63;;;15.80;99.90;;;;;;5132846;27;20540;-66
2023/09/21 12:50:13;;;;;;;1.85;0.70;;;15.80;99.90;;;;;;5114293;27;20080;-65
2023/09/21 12:52:42;;;;;;;0.90;0.60;;;15.80;99.90;;;;;;5115021;27;20043;-63
2023/09/21 12:55:08;;;;;;;0.90;0.52;;;15.80;99.90;;;;;;5114640;27;20164;-63
2023/09/21 12:57:41;;;;;;;3.75;0.50;;;15.70;99.90;;;;;;5114843;27;20498;-63
2023/09/21 13:00:10;;;;;;;;;;;15.70;99.90;;;;;;5098592;27;20524;-63
2023/09/21 13:02:37;;;;;;;0.80;0.70;;;15.70;99.90;;;;;;5114396;27;19916;-63
2023/09/21 13:05:03;;;;;;;1.42;0.70;;;15.60;99.90;;;;;;5115517;27;20050;-63
2023/09/21 13:07:29;;;;;;;1.20;0.60;;;15.60;99.90;;;;;;5115762;27;20464;-64
2023/09/21 13:09:55;;;;;;;0.80;0.70;;;15.60;99.90;;;;;;5120430;27;20048;-63
2023/09/21 13:12:20;;;;;;;1.33;0.80;;;15.70;99.90;;;;;;5095228;28;20024;-63
2023/09/21 13:14:46;;;;;;;0.85;0.63;;;15.70;99.90;;;;;;5112568;27;20454;-63
2023/09/21 13:17:13;;;;;;;0.93;0.70;;;15.70;99.90;;;;;;5115645;27;20047;-65
2023/09/21 13:19:39;;;;;;;2.10;1.13;;;15.70;99.90;;;;;;5115318;27;20031;-65
2023/09/21 13:22:04;;;;;;;1.27;0.70;;;15.70;99.90;;;;;;5115169;27;20065;-66
2023/09/21 13:24:30;;;;;;;0.75;0.60;;;15.70;99.90;;;;;;5115194;27;20031;-66
2023/09/21 13:26:55;;;;;;;0.85;0.80;;;15.60;99.90;;;;;;5115067;27;20090;-65
2023/09/21 13:29:21;;;;;;;0.93;0.52;;;15.60;99.90;;;;;;5115413;27;20125;-65
2023/09/21 13:31:47;;;;;;;2.13;0.75;;;15.60;99.90;;;;;;5114606;27;20046;-66
2023/09/21 13:34:13;;;;;;;2.95;0.75;;;15.50;99.90;;;;;;5108637;28;20057;-64
2023/09/21 13:36:39;;;;;;;2.00;0.65;;;15.50;99.90;;;;;;5095057;28;20038;-64
2023/09/21 13:39:05;;;;;;;3.55;1.27;;;15.40;99.90;;;;;;5094518;28;20039;-64
2023/09/21 13:41:31;;;;;;;0.95;0.60;;;15.30;99.90;;;;;;5094676;28;20079;-64
2023/09/21 13:43:56;;;;;;;2.42;0.70;;;15.20;99.90;;;;;;5095169;27;20047;-63
2023/09/21 13:46:22;;;;;;;1.25;0.52;;;15.20;99.90;;;;;;5114559;27;20038;-63
2023/09/21 13:48:48;;;;;;;1.55;0.60;;;15.10;99.90;;;;;;5103984;28;20035;-62
2023/09/21 13:51:13;;;;;;;1.50;0.57;;;15.10;99.90;;;;;;5094381;28;20035;-63
2023/09/21 13:53:39;;;;;;;0.73;0.70;;;15.00;99.90;;;;;;5094756;28;20066;-64